Ikke nødvendig med spesiell oppmerksomhet.   -   Det er ingen advarsler.

Nearby METAR Reports

 

ENRY - Rygge (nor-Afb), Norway
Distance from station: SØ 12km
Oppdatert: 24/10/2020 11:20
Few Clouds
Few Clouds
 Vind fra ØSØ
Vind: ØSØ 11 km/h
Temperatur: 7°C
Wind Chill: 5°C
Duggpunkt: 6°C
Fuktighet: 93%
Barometer: 1002 hPa
Clouds: Few Clouds
Visibility: 10 km
Cloud details: Few Clouds 1676 m
2020/10/24 18:20 ENRY 241820Z AUTO 12006KT 9999NDV FEW055/// 07/06 Q1002
ENTO - Torp (civ/Nor-Af, Norway
Distance from station: SV 34km
Oppdatert: 24/10/2020 11:20
Overskyet
Overskyet
 Vind fra SØ
Vind: SØ 6 km/h
Temperatur: 7°C
Duggpunkt: 7°C
Fuktighet: 100%
Barometer: 1002 hPa
Clouds: Overskyet
Visibility: 7 km
Cloud details: Delvis skyet 1006 m
Overskyet 2987 m
2020/10/24 18:20 ENTO 241820Z 14003KT 7000 SCT033 OVC098 07/07 Q1002 NOSIG
 
ENNO - Notodden, Norway
Distance from station: V 80km
Oppdatert: 24/10/2020 07:50
NOT Current
Hovedsaklig skyet
Hovedsaklig skyet
 Vind fra ØSØ
Vind: ØSØ 9 km/h
Temperatur: 8°C
Wind Chill: 6°C
Duggpunkt: 5°C
Fuktighet: 82%
Barometer: 1002 hPa
Clouds: Hovedsaklig skyet
Visibility: 10 km
Cloud details: Few Clouds 396 m
Hovedsaklig skyet 610 m
2020/10/24 14:50 ENNO 241450Z 11005KT 9999 FEW013 BKN020 08/05 Q1002
ENGM - Oslo/Gardermoen, Norway
Distance from station: NNØ 88km
Oppdatert: 24/10/2020 11:20
Noe regn, Yr, Overskyet
Noe regn, Yr, Overskyet
 Vind fra SSØ
Vind: SSØ 13 km/h
Temperatur: 5°C
Wind Chill: 2°C
Duggpunkt: 4°C
Fuktighet: 93%
Barometer: 1001 hPa
Oversikt: Noe regn, Yr
Clouds: Overskyet
Visibility: 10 km
Cloud details: Few Clouds 152 m
Overskyet 213 m
2020/10/24 18:20 ENGM 241820Z 15007KT 9999 -RADZ FEW005 OVC007 05/04 Q1001 NOSIG
 
ESOK - Karlstad North, Sweden
Distance from station: Ø 153km
Oppdatert: 24/10/2020 11:20
Tåkebanker, Hovedsaklig skyet
Tåkebanker, Hovedsaklig skyet
 Vind fra SØ
Vind: SØ 7 km/h
Temperatur: 6°C
Wind Chill: 4°C
Duggpunkt: 6°C
Fuktighet: 100%
Barometer: 1004 hPa
Oversikt: Patches of Fog
Clouds: Hovedsaklig skyet
Visibility: 1 km
Cloud details: Delvis skyet 335 m
Hovedsaklig skyet 488 m
Hovedsaklig skyet 610 m
2020/10/24 18:20 ESOK 241820Z AUTO 13004KT 1300 R03/P1500N R21/P1500N BCFG SCT011/// BKN016/// BKN020/// 06/06 Q1004
ESST - Torsby, Sweden
Distance from station: ØNØ 154km
Oppdatert: 24/10/2020 10:50
Overskyet
Overskyet
 Vind fra SØ
Vind: SØ 7 km/h
Temperatur: 5°C
Wind Chill: 3°C
Duggpunkt: 5°C
Fuktighet: 100%
Barometer: 1004 hPa
Clouds: Overskyet
Visibility: 10 km
Cloud details: Delvis skyet 152 m
Overskyet 488 m
2020/10/24 17:50 ESST 241750Z AUTO 14004KT 090V170 9999 SCT005/// OVC016/// 05/05 Q1004
 
ESGT - Trollhattan (pvt, Sweden
Distance from station: SØ 159km
Oppdatert: 24/10/2020 11:20
Overskyet
Overskyet
 Vind fra SØ
Vind: SØ 11 km/h
Temperatur: 8°C
Wind Chill: 6°C
Duggpunkt: 7°C
Fuktighet: 93%
Barometer: 1005 hPa
Clouds: Overskyet
Visibility: 10 km
Cloud details: Few Clouds 1615 m
Overskyet 3048 m
2020/10/24 18:20 ESGT 241820Z AUTO 14006KT 9999 FEW053/// OVC100/// 08/07 Q1005
ESIB - Satenas (swe-Afb, Sweden
Distance from station: SØ 164km
Oppdatert: 24/10/2020 11:20
Overskyet
Overskyet
 Vind fra S
Vind: S 13 km/h
Temperatur: 9°C
Wind Chill: 7°C
Duggpunkt: 9°C
Fuktighet: 100%
Barometer: 1005 hPa
Clouds: Overskyet
Visibility: 10 km
Cloud details: Hovedsaklig skyet 1524 m
Overskyet 3048 m
2020/10/24 18:20 ESIB 241820Z AUTO 17007KT 9999 BKN050/// OVC100/// 09/09 Q1005
 
ENCN - Kristiansand/Kje, Norway
Distance from station: SV 202km
Oppdatert: 24/10/2020 11:20
Noe regn, Showers, Hovedsaklig skyet
Noe regn, Showers, Hovedsaklig skyet
 Vind fra S
Vind: S 9 km/h
Temperatur: 11°C
Duggpunkt: 9°C
Fuktighet: 88%
Barometer: 1000 hPa
Oversikt: Noe regn, Showers
Clouds: Hovedsaklig skyet
Visibility: 10 km
Cloud details: Few Clouds 549 m
Hovedsaklig skyet 853 m
2020/10/24 18:20 ENCN 241820Z 17005KT 140V210 9999 -SHRA FEW018 BKN028 11/09 Q1000
EKSN - Sindal Airport, Denmark
Distance from station: S 217km
Oppdatert: 23/10/2020 05:50
NOT Current
Few Clouds
Few Clouds
 Vind fra V
Vind: V 22 km/h
Temperatur: 12°C
Duggpunkt: 6°C
Fuktighet: 67%
Barometer: 1005 hPa
Clouds: Few Clouds
Visibility: 10 km
Cloud details: Few Clouds 1372 m
2020/10/23 12:50 EKSN 231250Z 26012KT 9999 FEW045 12/06 Q1005
 
ESGG - Goteborg/Landvet, Sweden
Distance from station: SSØ 220km
Oppdatert: 24/10/2020 11:20
Few Clouds
Few Clouds
 Vind fra S
Vind: S 15 km/h
Temperatur: 7°C
Wind Chill: 4°C
Duggpunkt: 6°C
Fuktighet: 93%
Barometer: 1005 hPa
Clouds: Few Clouds
Visibility: 10 km
Cloud details: Few Clouds 762 m
2020/10/24 18:20 ESGG 241820Z 17008KT 9999 FEW025 07/06 Q1005
ESGR - Skovde Airport, Sweden
Distance from station: ØSØ 221km
Oppdatert: 24/10/2020 10:50
Few Clouds
Few Clouds
 Vind fra S
Vind: S 7 km/h
Temperatur: 5°C
Wind Chill: 3°C
Duggpunkt: 4°C
Fuktighet: 93%
Barometer: 1005 hPa
Clouds: Few Clouds
Visibility: 10 km
Cloud details: Few Clouds 1006 m
2020/10/24 17:50 ESGR 241750Z AUTO 18004KT 9999 FEW033/// 05/04 Q1005
 
ESOE - Orebro (private), Sweden
Distance from station: Ø 252km
Oppdatert: 24/10/2020 11:20
Overskyet
Overskyet
 Vind fra Ø
Vind: Ø 7 km/h
Temperatur: 5°C
Wind Chill: 3°C
Duggpunkt: 4°C
Fuktighet: 93%
Barometer: 1005 hPa
Clouds: Overskyet
Visibility: 10 km
Cloud details: Delvis skyet 274 m
Overskyet 945 m
2020/10/24 18:20 ESOE 241820Z AUTO 10004KT 9999 SCT009/// OVC031/// 05/04 Q1005
EKYT - Alborg, Denmark
Distance from station: S 264km
Oppdatert: 24/10/2020 11:20
Overskyet
Overskyet
 Vind fra SSØ
Vind: SSØ 20 km/h
Temperatur: 11°C
Duggpunkt: 8°C
Fuktighet: 82%
Barometer: 1003 hPa
Clouds: Overskyet
Visibility: 10 km
Cloud details: Delvis skyet 1097 m
Hovedsaklig skyet 1250 m
Overskyet 1494 m
2020/10/24 18:20 EKYT 241820Z AUTO 16011KT 9999 SCT036/// BKN041/// OVC049/// 11/08 Q1003
 
ENSG - Sogndal/Haukasen, Norway
Distance from station: NV 269km
Oppdatert: 24/10/2020 04:20
NOT Current
Delvis tåke
Delvis tåke
 Vind fra ØNØ
Vind: ØNØ 11 km/h
Oversikt: Delvis tåke
Visibility: 10 km
2020/10/24 11:20 ENSG 241120Z 07006KT 9999 0600E PRFG FEW/// SCT040 02/02 Q0999 RMK WIND 3806FT 18014KT
ESGJ - Jonkoping Airpor, Sweden
Distance from station: SØ 273km
Oppdatert: 24/10/2020 11:20
Klart
Klart
 Vind fra S
Vind: S 7 km/h
Temperatur: 7°C
Wind Chill: 6°C
Duggpunkt: 7°C
Fuktighet: 100%
Barometer: 1006 hPa
Clouds: Klart
Visibility: 10 km
2020/10/24 18:20 ESGJ 241820Z AUTO 19004KT 9999 NCD 07/07 Q1006
 
ENZV - Stavanger/Sola(A, Norway
Distance from station: V 292km
Oppdatert: 24/10/2020 11:20
Noe regn, Overskyet
Noe regn, Overskyet
 Vind fra SØ
Vind: SØ 30 km/h
Temperatur: 10°C
Wind Chill: 7°C
Duggpunkt: 9°C
Fuktighet: 94%
Barometer: 994 hPa
Oversikt: Noe regn
Clouds: Overskyet
Visibility: 8 km
Cloud details: Few Clouds 183 m
Hovedsaklig skyet 610 m
Overskyet 853 m
2020/10/24 18:20 ENZV 241820Z 14016KT 8000 -RA FEW006 BKN020 OVC028 10/09 Q0994 TEMPO 16020G30KT 4000 RADZ BKN008
ESSD - Borlange (swe-Af, Sweden
Distance from station: ØNØ 292km
Oppdatert: 24/10/2020 11:20
Overskyet
Overskyet
 Vind fra S
Vind: S 6 km/h
Temperatur: 2°C
Duggpunkt: 1°C
Fuktighet: 93%
Barometer: 1004 hPa
Clouds: Overskyet
Visibility: 10 km
Cloud details: Few Clouds 152 m
Overskyet 244 m
2020/10/24 18:20 ESSD 241820Z AUTO 19003KT 9999 FEW005/// OVC008/// 02/01 Q1004
 
ENSO - Stord/Soerstokke, Norway
Distance from station: V 300km
Oppdatert: 23/10/2020 10:20
NOT Current
Hovedsaklig skyet
Hovedsaklig skyet
 Vind fra ØSØ
Vind: ØSØ 20 km/h
Temperatur: 8°C
Wind Chill: 4°C
Duggpunkt: 3°C
Fuktighet: 71%
Barometer: 1000 hPa
Clouds: Hovedsaklig skyet
Visibility: 10 km
Cloud details: Few Clouds 975 m
Delvis skyet 1219 m
Hovedsaklig skyet 2438 m
2020/10/23 17:20 ENSO 231720Z 12011KT 9999 FEW032 SCT040 BKN080 08/03 Q1000
ESCF - Linkoping/Malmen, Sweden
Distance from station: ØSØ 305km
Oppdatert: 24/10/2020 11:20
Tåkebanker, Few clouds
Tåkebanker, Few clouds
 Vind fra S
Vind: S 4 km/h
Temperatur: 4°C
Duggpunkt: 4°C
Fuktighet: 100%
Barometer: 1006 hPa
Oversikt: Patches of Fog
Clouds: Few Clouds
Visibility: 1 km
Cloud details: Few Clouds 1250 m
2020/10/24 18:20 ESCF 241820Z AUTO 18002KT 0500 R19/0550VP2000D BCFG FEW041/// 04/04 Q1006